< < Back
Terminal Aerodrome Forecast


Current Version              Previous Versions:   1  2  3  4  5  6  7  8  9  

Terminal Aerodrome Forecast

802
FTAK31 PAJN 232100 AAA
TAFAHN
TAF AMD
PAHN 232130Z 2322/2418 12011G18KT P6SM BKN050 OVC080
     FM240000 12010KT P6SM BKN050 BKN100
     FM240300 10006KT P6SM VCSH SCT025 OVC050
     FM240900 VRB04KT P6SM VCSH SCT020 OVC040
     FM241500 12006KT P6SM -RA BKN025 OVC050
      AMD LTD TO CLD VIS AND WIND=



Latest METAR

365
SAUS70 KWBC 240154
MTRAHN
METAR KAHN 240151Z AUTO 19004KT 10SM SCT055 27/22 A2998 RMK AO2 SLP145
T02670222


USA.gov is the U.S. government's official web portal to all federal, state and local government web resources and services.